Time;durP1;ratioP1;P1;durP2;ratioP2;P2;SDS_P1;SDS_P2;PMS_P1;PMS_P2;Temp;Humidity;BMP_temperature;BMP_pressure;BME280_temperature;BME280_humidity;BME280_pressure;Samples;Min_cycle;Max_cycle;Signal;HPM_P1;HPM_P2
2022/12/31 00:00:35;;;;;;;;;;;;;;;;;;4985561;28;19957;-88
2022/12/31 00:08:24;;;;;;;;;;;;;;;;;;5234073;23;19930;-92
2022/12/31 00:13:46;;;;;;;;;;;;;;;;;;5288822;22;19938;-91
2022/12/31 00:16:18;;;;;;;;;;;;;;;;;;5341602;23;19913;-87
2022/12/31 00:18:44;;;;;;;;;;;;;;;;;;5001341;28;19917;-87
2022/12/31 00:21:10;;;;;;;;;;;;;;;;;;4981988;28;19982;-87
2022/12/31 00:23:35;;;;;;;;;;;;;;;;;;4982086;28;20467;-88
2022/12/31 00:28:44;;;;;;;;;;;;;;;;;;5260810;22;20390;-88
2022/12/31 00:34:18;;;;;;;;;;;;;;;;;;5609009;23;19924;-89
2022/12/31 00:36:52;;;;;;;;;;;;;;;;;;4985019;28;19906;-87
2022/12/31 00:39:24;;;;;;;;;;;;;;;;;;5001883;28;19918;-88
2022/12/31 00:41:50;;;;;;;;;;;;;;;;;;4986013;28;19936;-88
2022/12/31 00:44:18;;;;;;;;;;;;;;;;;;4988752;28;19914;-87
2022/12/31 00:46:47;;;;;;;;;;;;;;;;;;5005166;28;19956;-88
2022/12/31 00:49:14;;;;;;;;;;;;;;;;;;4989481;28;19922;-90
2022/12/31 00:51:39;;;;;;;;;;;;;;;;;;4988816;28;20392;-94
2022/12/31 00:54:08;;;;;;;;;;;;;;;;;;4987814;28;19924;-87
2022/12/31 00:56:44;;;;;;;;;;;;;;;;;;5191430;23;19910;-90
2022/12/31 00:59:09;;;;;;;;;;;;;;;;;;4968482;28;19986;-93
2022/12/31 01:01:38;;;;;;;;;;;;;;;;;;4969936;28;19914;-92
2022/12/31 01:04:03;;;;;;;;;;;;;;;;;;4968991;28;20417;-93
2022/12/31 01:06:31;;;;;;;;;;;;;;;;;;4984130;28;19918;-89
2022/12/31 01:08:57;;;;;;;;;;;;;;;;;;4963527;28;19960;-93
2022/12/31 01:11:22;;;;;;;;;;;;;;;;;;4972324;28;19982;-91
2022/12/31 01:13:48;;;;;;;;;;;;;;;;;;4976279;28;19918;-93
2022/12/31 01:16:14;;;;;;;;;;;;;;;;;;5106214;22;20313;-90
2022/12/31 01:18:39;;;;;;;;;;;;;;;;;;5236114;23;19909;-86
2022/12/31 01:23:46;;;;;;;;;;;;;;;;;;5286938;23;19918;-85
2022/12/31 01:26:14;;;;;;;;;;;;;;;;;;5002084;28;19914;-90
2022/12/31 01:28:39;;;;;;;;;;;;;;;;;;4981606;28;19914;-93
2022/12/31 01:31:05;;;;;;;;;;;;;;;;;;4987860;28;19918;-88
2022/12/31 01:33:33;;;;;;;;;;;;;;;;;;4987781;28;19994;-92
2022/12/31 01:35:59;;;;;;;;;;;;;;;;;;4986281;28;19917;-92
2022/12/31 01:38:24;;;;;;;;;;;;;;;;;;4998194;28;19918;-91
2022/12/31 01:40:50;;;;;;;;;;;;;;;;;;4974244;28;20008;-91
2022/12/31 01:43:15;;;;;;;;;;;;;;;;;;4974595;28;19918;-93
2022/12/31 01:45:43;;;;;;;;;;;;;;;;;;4980988;28;19914;-90
2022/12/31 01:48:08;;;;;;;;;;;;;;;;;;4985364;28;19913;-92
2022/12/31 01:50:34;;;;;;;;;;;;;;;;;;4985716;28;19898;-90
2022/12/31 01:53:00;;;;;;;;;;;;;;;;;;4982599;28;19922;-92
2022/12/31 01:55:28;;;;;;;;;;;;;;;;;;4978710;28;19914;-91
2022/12/31 01:57:53;;;;;;;;;;;;;;;;;;4971872;28;20333;-93
2022/12/31 02:00:18;;;;;;;;;;;;;;;;;;4966309;28;20270;-92
2022/12/31 02:02:46;;;;;;;;;;;;;;;;;;4965136;28;19918;-93
2022/12/31 02:05:12;;;;;;;;;;;;;;;;;;4964451;28;19984;-92
2022/12/31 02:07:37;;;;;;;;;;;;;;;;;;4964234;28;20289;-92
2022/12/31 02:10:02;;;;;;;;;;;;;;;;;;4963632;28;20332;-94
2022/12/31 02:12:28;;;;;;;;;;;;;;;;;;4963655;28;19985;-94
2022/12/31 02:14:53;;;;;;;;;;;;;;;;;;4963476;28;19936;-94
2022/12/31 02:17:19;;;;;;;;;;;;;;;;;;4963261;28;19918;-94
2022/12/31 02:19:44;;;;;;;;;;;;;;;;;;4963158;28;20293;-95
2022/12/31 02:22:10;;;;;;;;;;;;;;;;;;4962986;28;19994;-94
2022/12/31 02:24:35;;;;;;;;;;;;;;;;;;4962860;28;20543;-94
2022/12/31 02:27:01;;;;;;;;;;;;;;;;;;4962600;28;19961;-94
2022/12/31 02:29:26;;;;;;;;;;;;;;;;;;4962906;28;19918;-93
2022/12/31 02:31:52;;;;;;;;;;;;;;;;;;4962960;28;19917;-93
2022/12/31 02:34:17;;;;;;;;;;;;;;;;;;4962756;28;19913;-94
2022/12/31 02:36:42;;;;;;;;;;;;;;;;;;4963039;28;20333;-94
2022/12/31 02:39:10;;;;;;;;;;;;;;;;;;4963262;28;19921;-95
2022/12/31 02:41:54;;;;;;;;;;;;;;;;;;4962592;28;19924;-93
2022/12/31 02:44:19;;;;;;;;;;;;;;;;;;4963968;28;19980;-94
2022/12/31 02:46:45;;;;;;;;;;;;;;;;;;4965270;28;20322;-92
2022/12/31 02:49:10;;;;;;;;;;;;;;;;;;4968737;28;20305;-89
2022/12/31 02:51:36;;;;;;;;;;;;;;;;;;4964899;28;20281;-94
2022/12/31 02:54:01;;;;;;;;;;;;;;;;;;4962571;28;19953;-95
2022/12/31 02:56:30;;;;;;;;;;;;;;;;;;4962467;28;20020;-95
2022/12/31 03:04:33;;;;;;;;;;;;;;;;;;4977770;28;19913;-94
2022/12/31 03:06:59;;;;;;;;;;;;;;;;;;4961903;28;19913;-93
2022/12/31 03:09:24;;;;;;;;;;;;;;;;;;4962433;28;20381;-93
2022/12/31 03:14:34;;;;;;;;;;;;;;;;;;4979094;28;19914;-95
2022/12/31 03:16:59;;;;;;;;;;;;;;;;;;4962442;28;20296;-92
2022/12/31 03:22:27;;;;;;;;;;;;;;;;;;4977896;28;19999;-94
2022/12/31 03:27:37;;;;;;;;;;;;;;;;;;4978598;28;19914;-94
2022/12/31 03:30:02;;;;;;;;;;;;;;;;;;4961100;28;19910;-94
2022/12/31 03:32:28;;;;;;;;;;;;;;;;;;4960866;28;20392;-94
2022/12/31 03:34:54;;;;;;;;;;;;;;;;;;4961090;28;20273;-94
2022/12/31 03:37:20;;;;;;;;;;;;;;;;;;4961323;28;19914;-94
2022/12/31 03:39:45;;;;;;;;;;;;;;;;;;4960910;28;19914;-94
2022/12/31 03:42:10;;;;;;;;;;;;;;;;;;4976736;28;20377;-94
2022/12/31 03:44:36;;;;;;;;;;;;;;;;;;4960986;28;19964;-93
2022/12/31 03:47:01;;;;;;;;;;;;;;;;;;4961329;28;19913;-93
2022/12/31 03:49:27;;;;;;;;;;;;;;;;;;4961191;28;19914;-93
2022/12/31 03:51:52;;;;;;;;;;;;;;;;;;4961899;28;19949;-93
2022/12/31 03:54:17;;;;;;;;;;;;;;;;;;4962694;28;19913;-93
2022/12/31 03:56:43;;;;;;;;;;;;;;;;;;4978900;28;20404;-93
2022/12/31 03:59:08;;;;;;;;;;;;;;;;;;4963173;28;19961;-92
2022/12/31 04:01:34;;;;;;;;;;;;;;;;;;4978481;28;19925;-92
2022/12/31 04:03:59;;;;;;;;;;;;;;;;;;4962146;28;19917;-93
2022/12/31 04:06:25;;;;;;;;;;;;;;;;;;4965261;28;19914;-93
2022/12/31 04:08:50;;;;;;;;;;;;;;;;;;4965132;28;19910;-92
2022/12/31 04:11:15;;;;;;;;;;;;;;;;;;4965002;28;19918;-91
2022/12/31 04:13:41;;;;;;;;;;;;;;;;;;4964903;28;19921;-93
2022/12/31 04:16:06;;;;;;;;;;;;;;;;;;4965075;28;19914;-92
2022/12/31 04:18:32;;;;;;;;;;;;;;;;;;4965572;28;19921;-92
2022/12/31 04:20:57;;;;;;;;;;;;;;;;;;4969257;28;20305;-95
2022/12/31 04:23:22;;;;;;;;;;;;;;;;;;4968910;28;19925;-94
2022/12/31 04:25:48;;;;;;;;;;;;;;;;;;4971760;28;19921;-93
2022/12/31 04:28:13;;;;;;;;;;;;;;;;;;4999685;28;19939;-94
2022/12/31 04:30:39;;;;;;;;;;;;;;;;;;4968049;28;19920;-92
2022/12/31 04:33:04;;;;;;;;;;;;;;;;;;4966524;28;19953;-94
2022/12/31 04:35:29;;;;;;;;;;;;;;;;;;4966602;28;19914;-93
2022/12/31 04:37:55;;;;;;;;;;;;;;;;;;4971410;28;19929;-92
2022/12/31 04:40:21;;;;;;;;;;;;;;;;;;4968704;28;19918;-93
2022/12/31 04:42:46;;;;;;;;;;;;;;;;;;4964903;28;19924;-92
2022/12/31 04:45:12;;;;;;;;;;;;;;;;;;4968465;28;19910;-93
2022/12/31 04:47:37;;;;;;;;;;;;;;;;;;4967162;28;19920;-93
2022/12/31 04:50:02;;;;;;;;;;;;;;;;;;4968247;28;19910;-93
2022/12/31 04:52:28;;;;;;;;;;;;;;;;;;4968246;28;19914;-94
2022/12/31 04:54:53;;;;;;;;;;;;;;;;;;4969298;28;19921;-94
2022/12/31 04:57:19;;;;;;;;;;;;;;;;;;4969128;28;19914;-94
2022/12/31 04:59:44;;;;;;;;;;;;;;;;;;4971142;28;20008;-93
2022/12/31 05:02:09;;;;;;;;;;;;;;;;;;4969202;28;19936;-93
2022/12/31 05:04:35;;;;;;;;;;;;;;;;;;4967720;28;19949;-94
2022/12/31 05:07:00;;;;;;;;;;;;;;;;;;4967804;28;19920;-93
2022/12/31 05:09:27;;;;;;;;;;;;;;;;;;4964686;28;19918;-95
2022/12/31 05:11:52;;;;;;;;;;;;;;;;;;4965496;28;19920;-94
2022/12/31 05:14:17;;;;;;;;;;;;;;;;;;4965407;28;19913;-94
2022/12/31 05:16:43;;;;;;;;;;;;;;;;;;4967585;28;19920;-94
2022/12/31 05:19:08;;;;;;;;;;;;;;;;;;4966921;28;19914;-93
2022/12/31 05:21:34;;;;;;;;;;;;;;;;;;4971503;28;19918;-91
2022/12/31 05:23:59;;;;;;;;;;;;;;;;;;4971238;28;19953;-93
2022/12/31 05:26:25;;;;;;;;;;;;;;;;;;4969738;28;19941;-95
2022/12/31 05:28:50;;;;;;;;;;;;;;;;;;4964059;28;19953;-94
2022/12/31 05:31:18;;;;;;;;;;;;;;;;;;4978100;28;23103;-94
2022/12/31 05:33:43;;;;;;;;;;;;;;;;;;4964133;28;19921;-94
2022/12/31 05:36:09;;;;;;;;;;;;;;;;;;4964263;28;19914;-94
2022/12/31 05:38:35;;;;;;;;;;;;;;;;;;4963693;28;19960;-93
2022/12/31 05:41:00;;;;;;;;;;;;;;;;;;4963142;28;20282;-93
2022/12/31 05:43:25;;;;;;;;;;;;;;;;;;4963325;28;19913;-93
2022/12/31 05:45:51;;;;;;;;;;;;;;;;;;4965832;28;19914;-93
2022/12/31 05:48:16;;;;;;;;;;;;;;;;;;4963959;28;19918;-93
2022/12/31 05:50:42;;;;;;;;;;;;;;;;;;4964954;28;19964;-93
2022/12/31 05:53:07;;;;;;;;;;;;;;;;;;4963717;28;19936;-95
2022/12/31 05:55:33;;;;;;;;;;;;;;;;;;4963474;28;20289;-93
2022/12/31 05:57:58;;;;;;;;;;;;;;;;;;4979687;28;20362;-92
2022/12/31 06:00:23;;;;;;;;;;;;;;;;;;4963439;28;19918;-92
2022/12/31 06:02:49;;;;;;;;;;;;;;;;;;4965968;28;19984;-93
2022/12/31 06:05:14;;;;;;;;;;;;;;;;;;4979367;28;19914;-92
2022/12/31 06:07:40;;;;;;;;;;;;;;;;;;4964084;28;19914;-91
2022/12/31 06:10:05;;;;;;;;;;;;;;;;;;4965469;28;20036;-92
2022/12/31 06:12:31;;;;;;;;;;;;;;;;;;4965739;28;20452;-94
2022/12/31 06:14:56;;;;;;;;;;;;;;;;;;4967517;28;19921;-91
2022/12/31 06:17:21;;;;;;;;;;;;;;;;;;4981159;28;20285;-92
2022/12/31 06:19:47;;;;;;;;;;;;;;;;;;4964900;28;20259;-93
2022/12/31 06:22:13;;;;;;;;;;;;;;;;;;4963347;28;19921;-93
2022/12/31 06:24:39;;;;;;;;;;;;;;;;;;4966319;28;19914;-94
2022/12/31 06:27:04;;;;;;;;;;;;;;;;;;4965027;28;19921;-93
2022/12/31 06:29:30;;;;;;;;;;;;;;;;;;4964068;28;20378;-94
2022/12/31 06:31:55;;;;;;;;;;;;;;;;;;4964623;28;20333;-91
2022/12/31 06:34:21;;;;;;;;;;;;;;;;;;4981652;28;19949;-94
2022/12/31 06:36:46;;;;;;;;;;;;;;;;;;4964507;28;19924;-96
2022/12/31 06:39:11;;;;;;;;;;;;;;;;;;4964020;28;19949;-94
2022/12/31 06:41:37;;;;;;;;;;;;;;;;;;4962149;28;20293;-92
2022/12/31 06:44:02;;;;;;;;;;;;;;;;;;4962847;28;20384;-94
2022/12/31 06:46:30;;;;;;;;;;;;;;;;;;4964374;28;19914;-93
2022/12/31 06:48:56;;;;;;;;;;;;;;;;;;4963918;28;19917;-94
2022/12/31 06:51:22;;;;;;;;;;;;;;;;;;4963470;28;19972;-94
2022/12/31 06:53:48;;;;;;;;;;;;;;;;;;4964177;28;20378;-95
2022/12/31 06:56:13;;;;;;;;;;;;;;;;;;4966943;28;20425;-94
2022/12/31 06:58:39;;;;;;;;;;;;;;;;;;4969341;28;19921;-92
2022/12/31 07:01:04;;;;;;;;;;;;;;;;;;4972650;28;19937;-94
2022/12/31 07:03:30;;;;;;;;;;;;;;;;;;4976492;28;19914;-93
2022/12/31 07:05:55;;;;;;;;;;;;;;;;;;4983414;28;19914;-93
2022/12/31 07:08:21;;;;;;;;;;;;;;;;;;4980608;28;19945;-93
2022/12/31 07:10:46;;;;;;;;;;;;;;;;;;4969953;28;19917;-93
2022/12/31 07:13:12;;;;;;;;;;;;;;;;;;4995153;28;19920;-92
2022/12/31 07:15:37;;;;;;;;;;;;;;;;;;4982698;28;19905;-95
2022/12/31 07:18:03;;;;;;;;;;;;;;;;;;4982454;28;19914;-94
2022/12/31 07:20:28;;;;;;;;;;;;;;;;;;4983662;28;19941;-95
2022/12/31 07:22:53;;;;;;;;;;;;;;;;;;4983444;28;19906;-94
2022/12/31 07:25:19;;;;;;;;;;;;;;;;;;4985006;28;19906;-93
2022/12/31 07:27:44;;;;;;;;;;;;;;;;;;4982501;28;19985;-93
2022/12/31 07:30:10;;;;;;;;;;;;;;;;;;4965552;28;19977;-96
2022/12/31 07:32:35;;;;;;;;;;;;;;;;;;4962103;28;19921;-92
2022/12/31 07:35:01;;;;;;;;;;;;;;;;;;4962036;28;19914;-94
2022/12/31 07:37:26;;;;;;;;;;;;;;;;;;4962059;28;20008;-92
2022/12/31 07:39:52;;;;;;;;;;;;;;;;;;4961641;28;20189;-93
2022/12/31 07:42:17;;;;;;;;;;;;;;;;;;4978318;28;20377;-94
2022/12/31 07:44:43;;;;;;;;;;;;;;;;;;4962959;28;19914;-94
2022/12/31 07:47:08;;;;;;;;;;;;;;;;;;4963367;28;20289;-95
2022/12/31 07:49:34;;;;;;;;;;;;;;;;;;4962587;28;20012;-93
2022/12/31 07:52:00;;;;;;;;;;;;;;;;;;4963115;28;19921;-94
2022/12/31 07:54:25;;;;;;;;;;;;;;;;;;4963391;28;19918;-94
2022/12/31 07:56:50;;;;;;;;;;;;;;;;;;4964970;28;20041;-93
2022/12/31 07:59:16;;;;;;;;;;;;;;;;;;4964103;28;19918;-95
2022/12/31 08:01:41;;;;;;;;;;;;;;;;;;4968110;28;19925;-95
2022/12/31 08:04:07;;;;;;;;;;;;;;;;;;4971348;28;19918;-95
2022/12/31 08:06:32;;;;;;;;;;;;;;;;;;4969419;28;20321;-93
2022/12/31 08:08:58;;;;;;;;;;;;;;;;;;4965822;28;19964;-92
2022/12/31 08:11:23;;;;;;;;;;;;;;;;;;4965552;28;19914;-94
2022/12/31 08:13:51;;;;;;;;;;;;;;;;;;4965409;28;19914;-94
2022/12/31 08:16:16;;;;;;;;;;;;;;;;;;4965873;28;20385;-92
2022/12/31 08:18:42;;;;;;;;;;;;;;;;;;4966377;28;19914;-92
2022/12/31 08:21:07;;;;;;;;;;;;;;;;;;4964082;28;19924;-93
2022/12/31 08:23:33;;;;;;;;;;;;;;;;;;4982455;28;19918;-92
2022/12/31 08:25:58;;;;;;;;;;;;;;;;;;4982188;28;19905;-93
2022/12/31 08:28:24;;;;;;;;;;;;;;;;;;4984638;28;19993;-95
2022/12/31 08:30:49;;;;;;;;;;;;;;;;;;4984493;28;19947;-93
2022/12/31 08:33:15;;;;;;;;;;;;;;;;;;4981785;28;19902;-93
2022/12/31 08:35:40;;;;;;;;;;;;;;;;;;4983370;28;19913;-91
2022/12/31 08:38:06;;;;;;;;;;;;;;;;;;4981111;28;19922;-92
2022/12/31 08:40:31;;;;;;;;;;;;;;;;;;4978871;28;19922;-91
2022/12/31 08:42:57;;;;;;;;;;;;;;;;;;4991005;28;19924;-94
2022/12/31 08:45:22;;;;;;;;;;;;;;;;;;4975300;28;19914;-89
2022/12/31 08:47:51;;;;;;;;;;;;;;;;;;4980754;28;19925;-92
2022/12/31 08:50:16;;;;;;;;;;;;;;;;;;4974317;28;20011;-93
2022/12/31 08:52:42;;;;;;;;;;;;;;;;;;4967585;28;19894;-95
2022/12/31 08:55:07;;;;;;;;;;;;;;;;;;4977514;28;20242;-91
2022/12/31 08:57:33;;;;;;;;;;;;;;;;;;4974130;28;20384;-94
2022/12/31 08:59:58;;;;;;;;;;;;;;;;;;4968444;28;19920;-94
2022/12/31 09:02:24;;;;;;;;;;;;;;;;;;4973299;28;20326;-92
2022/12/31 09:04:49;;;;;;;;;;;;;;;;;;4976953;28;20112;-92
2022/12/31 09:07:15;;;;;;;;;;;;;;;;;;4972610;28;19914;-95
2022/12/31 09:09:41;;;;;;;;;;;;;;;;;;4991084;28;19921;-93
2022/12/31 09:12:06;;;;;;;;;;;;;;;;;;4974695;28;19918;-92
2022/12/31 09:14:32;;;;;;;;;;;;;;;;;;4975782;28;19921;-91
2022/12/31 09:16:57;;;;;;;;;;;;;;;;;;4975325;28;19949;-93
2022/12/31 09:19:22;;;;;;;;;;;;;;;;;;4979178;28;20324;-92
2022/12/31 09:21:48;;;;;;;;;;;;;;;;;;4977370;28;19917;-91
2022/12/31 09:24:13;;;;;;;;;;;;;;;;;;4978057;28;19928;-94
2022/12/31 09:26:39;;;;;;;;;;;;;;;;;;4979524;28;19917;-94
2022/12/31 09:29:04;;;;;;;;;;;;;;;;;;4983207;28;19924;-94
2022/12/31 09:31:30;;;;;;;;;;;;;;;;;;4979220;28;19973;-94
2022/12/31 09:33:55;;;;;;;;;;;;;;;;;;4983071;28;19913;-93
2022/12/31 09:36:21;;;;;;;;;;;;;;;;;;4984050;28;19977;-92
2022/12/31 09:38:46;;;;;;;;;;;;;;;;;;4984183;28;19986;-93
2022/12/31 09:41:15;;;;;;;;;;;;;;;;;;4983027;28;19929;-92
2022/12/31 09:43:40;;;;;;;;;;;;;;;;;;4999085;28;19920;-91
2022/12/31 09:46:05;;;;;;;;;;;;;;;;;;4980490;28;19981;-94
2022/12/31 09:48:31;;;;;;;;;;;;;;;;;;4979054;28;20308;-93
2022/12/31 09:50:57;;;;;;;;;;;;;;;;;;4972286;28;19914;-93
2022/12/31 09:53:22;;;;;;;;;;;;;;;;;;4967675;28;19914;-94
2022/12/31 09:55:48;;;;;;;;;;;;;;;;;;4969500;28;19921;-94
2022/12/31 09:58:13;;;;;;;;;;;;;;;;;;4968440;28;19914;-93
2022/12/31 10:00:38;;;;;;;;;;;;;;;;;;4980943;28;19917;-93
2022/12/31 10:03:04;;;;;;;;;;;;;;;;;;4965610;28;20370;-94
2022/12/31 10:05:29;;;;;;;;;;;;;;;;;;4980963;28;19914;-94
2022/12/31 10:07:55;;;;;;;;;;;;;;;;;;4965674;28;19920;-93
2022/12/31 10:10:20;;;;;;;;;;;;;;;;;;4964788;28;19956;-93
2022/12/31 10:12:46;;;;;;;;;;;;;;;;;;4963287;28;20000;-94
2022/12/31 10:15:11;;;;;;;;;;;;;;;;;;4963863;28;20001;-94
2022/12/31 10:17:36;;;;;;;;;;;;;;;;;;4963805;28;19984;-94
2022/12/31 10:20:02;;;;;;;;;;;;;;;;;;4963898;28;19909;-93
2022/12/31 10:22:27;;;;;;;;;;;;;;;;;;4963105;28;19917;-95
2022/12/31 10:24:53;;;;;;;;;;;;;;;;;;4963470;28;19920;-95
2022/12/31 10:27:20;;;;;;;;;;;;;;;;;;4965925;28;20389;-94
2022/12/31 10:29:46;;;;;;;;;;;;;;;;;;4964602;28;20338;-94
2022/12/31 10:32:14;;;;;;;;;;;;;;;;;;4963208;28;19945;-95
2022/12/31 10:34:39;;;;;;;;;;;;;;;;;;4963273;28;19914;-95
2022/12/31 10:37:05;;;;;;;;;;;;;;;;;;4963276;28;20350;-95
2022/12/31 10:39:30;;;;;;;;;;;;;;;;;;4963656;28;19953;-93
2022/12/31 10:41:56;;;;;;;;;;;;;;;;;;4963958;28;19922;-94
2022/12/31 10:44:21;;;;;;;;;;;;;;;;;;4979366;28;19990;-94
2022/12/31 10:46:47;;;;;;;;;;;;;;;;;;4962995;28;19918;-94
2022/12/31 10:49:12;;;;;;;;;;;;;;;;;;4963025;28;19972;-94
2022/12/31 10:51:38;;;;;;;;;;;;;;;;;;4962442;28;19936;-94
2022/12/31 10:54:03;;;;;;;;;;;;;;;;;;4963318;28;19949;-93
2022/12/31 10:56:29;;;;;;;;;;;;;;;;;;4978653;28;20341;-94
2022/12/31 10:58:54;;;;;;;;;;;;;;;;;;4979005;28;19964;-94
2022/12/31 11:01:19;;;;;;;;;;;;;;;;;;4962109;28;19941;-94
2022/12/31 11:03:45;;;;;;;;;;;;;;;;;;4962629;28;19989;-94
2022/12/31 11:06:11;;;;;;;;;;;;;;;;;;4963619;28;19914;-94
2022/12/31 11:08:37;;;;;;;;;;;;;;;;;;4965903;28;20364;-94
2022/12/31 11:11:02;;;;;;;;;;;;;;;;;;4964557;28;19964;-95
2022/12/31 11:13:27;;;;;;;;;;;;;;;;;;4965681;28;19936;-93
2022/12/31 11:15:54;;;;;;;;;;;;;;;;;;4965201;28;20282;-93
2022/12/31 11:18:19;;;;;;;;;;;;;;;;;;4965975;28;19921;-92
2022/12/31 11:20:44;;;;;;;;;;;;;;;;;;4963835;28;19918;-93
2022/12/31 11:23:10;;;;;;;;;;;;;;;;;;4965497;28;19922;-93
2022/12/31 11:25:35;;;;;;;;;;;;;;;;;;4962326;28;19915;-93
2022/12/31 11:28:01;;;;;;;;;;;;;;;;;;4976245;28;19936;-94
2022/12/31 11:30:29;;;;;;;;;;;;;;;;;;4961773;28;19920;-93
2022/12/31 11:32:54;;;;;;;;;;;;;;;;;;4961542;28;19914;-94
2022/12/31 11:35:20;;;;;;;;;;;;;;;;;;4977142;28;19914;-94
2022/12/31 11:37:45;;;;;;;;;;;;;;;;;;4961079;28;19968;-94
2022/12/31 11:40:11;;;;;;;;;;;;;;;;;;4961943;28;19917;-94
2022/12/31 11:42:39;;;;;;;;;;;;;;;;;;4961328;28;20029;-91
2022/12/31 11:45:06;;;;;;;;;;;;;;;;;;4961947;28;19918;-92
2022/12/31 11:47:34;;;;;;;;;;;;;;;;;;4961250;28;19914;-94
2022/12/31 11:50:00;;;;;;;;;;;;;;;;;;4960836;28;19936;-93
2022/12/31 11:52:25;;;;;;;;;;;;;;;;;;4962107;28;19941;-94
2022/12/31 11:54:51;;;;;;;;;;;;;;;;;;4962220;28;19914;-94
2022/12/31 11:57:16;;;;;;;;;;;;;;;;;;4962025;28;19917;-94
2022/12/31 11:59:42;;;;;;;;;;;;;;;;;;4962088;28;19921;-94
2022/12/31 12:02:07;;;;;;;;;;;;;;;;;;4976850;28;20370;-93
2022/12/31 12:04:33;;;;;;;;;;;;;;;;;;4962996;28;20009;-93
2022/12/31 12:06:58;;;;;;;;;;;;;;;;;;4963253;28;19921;-92
2022/12/31 12:09:24;;;;;;;;;;;;;;;;;;4996843;28;20293;-91
2022/12/31 12:11:49;;;;;;;;;;;;;;;;;;4965556;28;20362;-91
2022/12/31 12:14:18;;;;;;;;;;;;;;;;;;4963667;28;19920;-94
2022/12/31 12:16:43;;;;;;;;;;;;;;;;;;4976980;28;19913;-91
2022/12/31 12:19:09;;;;;;;;;;;;;;;;;;4961196;28;20354;-93
2022/12/31 12:21:34;;;;;;;;;;;;;;;;;;4976244;28;20472;-91
2022/12/31 12:24:00;;;;;;;;;;;;;;;;;;4977651;28;20286;-93
2022/12/31 12:26:27;;;;;;;;;;;;;;;;;;4962107;28;19949;-94
2022/12/31 12:28:53;;;;;;;;;;;;;;;;;;4961102;28;19941;-93
2022/12/31 12:31:18;;;;;;;;;;;;;;;;;;4961178;28;20392;-93
2022/12/31 12:33:44;;;;;;;;;;;;;;;;;;4960662;28;19949;-93
2022/12/31 12:36:09;;;;;;;;;;;;;;;;;;4960552;28;19914;-93
2022/12/31 12:38:35;;;;;;;;;;;;;;;;;;4960696;28;19937;-93
2022/12/31 12:41:00;;;;;;;;;;;;;;;;;;4964577;28;20285;-94
2022/12/31 12:43:26;;;;;;;;;;;;;;;;;;4980970;28;19914;-92
2022/12/31 12:45:51;;;;;;;;;;;;;;;;;;4980499;28;19913;-94
2022/12/31 12:48:17;;;;;;;;;;;;;;;;;;4964107;28;19918;-94
2022/12/31 12:50:42;;;;;;;;;;;;;;;;;;4963769;28;20000;-94
2022/12/31 12:53:08;;;;;;;;;;;;;;;;;;4964410;28;19914;-93
2022/12/31 12:55:33;;;;;;;;;;;;;;;;;;4964331;28;19914;-93
2022/12/31 12:57:59;;;;;;;;;;;;;;;;;;4963379;28;20361;-94
2022/12/31 13:00:28;;;;;;;;;;;;;;;;;;4980024;28;19918;-93
2022/12/31 13:02:53;;;;;;;;;;;;;;;;;;4963861;28;19991;-93
2022/12/31 13:05:20;;;;;;;;;;;;;;;;;;4963538;28;19918;-94
2022/12/31 13:07:45;;;;;;;;;;;;;;;;;;4964211;28;19914;-93
2022/12/31 13:10:11;;;;;;;;;;;;;;;;;;4964011;28;20384;-92
2022/12/31 13:12:36;;;;;;;;;;;;;;;;;;4979665;28;19953;-94
2022/12/31 13:15:02;;;;;;;;;;;;;;;;;;4979904;28;19914;-94
2022/12/31 13:17:27;;;;;;;;;;;;;;;;;;4980039;28;19914;-93
2022/12/31 13:19:52;;;;;;;;;;;;;;;;;;4963225;28;19920;-93
2022/12/31 13:22:18;;;;;;;;;;;;;;;;;;4963271;28;19924;-94
2022/12/31 13:24:43;;;;;;;;;;;;;;;;;;4963371;28;19914;-93
2022/12/31 13:27:09;;;;;;;;;;;;;;;;;;4982333;28;19936;-93
2022/12/31 13:29:35;;;;;;;;;;;;;;;;;;4971539;28;19953;-92
2022/12/31 13:32:00;;;;;;;;;;;;;;;;;;4976738;28;19937;-93
2022/12/31 13:34:25;;;;;;;;;;;;;;;;;;4975599;28;19976;-89
2022/12/31 13:36:51;;;;;;;;;;;;;;;;;;4992449;28;19981;-90
2022/12/31 13:39:19;;;;;;;;;;;;;;;;;;4992405;28;20365;-89
2022/12/31 13:41:44;;;;;;;;;;;;;;;;;;4971204;28;19918;-88
2022/12/31 13:44:10;;;;;;;;;;;;;;;;;;5002271;28;19914;-91
2022/12/31 13:46:35;;;;;;;;;;;;;;;;;;4994875;28;19910;-91
2022/12/31 13:49:00;;;;;;;;;;;;;;;;;;4995293;28;19913;-89
2022/12/31 13:51:26;;;;;;;;;;;;;;;;;;4992858;28;19969;-89
2022/12/31 13:53:54;;;;;;;;;;;;;;;;;;4995300;28;19920;-92
2022/12/31 13:56:20;;;;;;;;;;;;;;;;;;4995251;28;19921;-91
2022/12/31 13:58:46;;;;;;;;;;;;;;;;;;4962138;28;19913;-88
2022/12/31 14:01:11;;;;;;;;;;;;;;;;;;4994949;28;19917;-90
2022/12/31 14:03:37;;;;;;;;;;;;;;;;;;4978230;28;20439;-89
2022/12/31 14:06:02;;;;;;;;;;;;;;;;;;4978147;28;19914;-89
2022/12/31 14:08:27;;;;;;;;;;;;;;;;;;4994637;28;19914;-90
2022/12/31 14:10:53;;;;;;;;;;;;;;;;;;4994277;28;20436;-90
2022/12/31 14:13:19;;;;;;;;;;;;;;;;;;4994240;28;19914;-89
2022/12/31 14:15:45;;;;;;;;;;;;;;;;;;4994861;28;19910;-90
2022/12/31 14:18:10;;;;;;;;;;;;;;;;;;4993797;28;19914;-90
2022/12/31 14:20:35;;;;;;;;;;;;;;;;;;4977081;28;19918;-89
2022/12/31 14:23:04;;;;;;;;;;;;;;;;;;4993786;28;19968;-90
2022/12/31 14:25:29;;;;;;;;;;;;;;;;;;4994816;28;20382;-91
2022/12/31 14:27:55;;;;;;;;;;;;;;;;;;4993941;28;20377;-90
2022/12/31 14:30:20;;;;;;;;;;;;;;;;;;4993887;28;19914;-90
2022/12/31 14:32:45;;;;;;;;;;;;;;;;;;4994817;28;19946;-90
2022/12/31 14:35:11;;;;;;;;;;;;;;;;;;4977457;28;20001;-89
2022/12/31 14:37:36;;;;;;;;;;;;;;;;;;4994959;28;19917;-91
2022/12/31 14:40:02;;;;;;;;;;;;;;;;;;4993702;28;20008;-90
2022/12/31 14:42:27;;;;;;;;;;;;;;;;;;4993938;28;19961;-90
2022/12/31 14:44:53;;;;;;;;;;;;;;;;;;4977649;28;20281;-90
2022/12/31 14:47:18;;;;;;;;;;;;;;;;;;4977653;28;20112;-91
2022/12/31 14:49:43;;;;;;;;;;;;;;;;;;4978121;28;19913;-91
2022/12/31 14:52:09;;;;;;;;;;;;;;;;;;4995564;28;19914;-90
2022/12/31 14:54:35;;;;;;;;;;;;;;;;;;4994095;28;19914;-90
2022/12/31 14:57:00;;;;;;;;;;;;;;;;;;4994012;28;19914;-91
2022/12/31 14:59:25;;;;;;;;;;;;;;;;;;4994613;28;19914;-91
2022/12/31 15:01:51;;;;;;;;;;;;;;;;;;4977655;28;19941;-91
2022/12/31 15:04:19;;;;;;;;;;;;;;;;;;4994120;28;19914;-89
2022/12/31 15:06:44;;;;;;;;;;;;;;;;;;4994720;28;20289;-91
2022/12/31 15:09:09;;;;;;;;;;;;;;;;;;4996206;28;20369;-91
2022/12/31 15:11:35;;;;;;;;;;;;;;;;;;4999184;28;19914;-89
2022/12/31 15:14:00;;;;;;;;;;;;;;;;;;5000297;28;20373;-91
2022/12/31 15:16:26;;;;;;;;;;;;;;;;;;4998369;28;19914;-90
2022/12/31 15:18:51;;;;;;;;;;;;;;;;;;5002931;28;19914;-90
2022/12/31 15:21:16;;;;;;;;;;;;;;;;;;4986800;28;19957;-90
2022/12/31 15:23:42;;;;;;;;;;;;;;;;;;5004270;28;20297;-87
2022/12/31 15:26:08;;;;;;;;;;;;;;;;;;5000253;28;20001;-90
2022/12/31 15:28:33;;;;;;;;;;;;;;;;;;4982102;28;19909;-90
2022/12/31 15:30:59;;;;;;;;;;;;;;;;;;4997369;28;20281;-88
2022/12/31 15:33:24;;;;;;;;;;;;;;;;;;5000356;28;20350;-90
2022/12/31 15:35:50;;;;;;;;;;;;;;;;;;5007768;28;19978;-90
2022/12/31 15:38:15;;;;;;;;;;;;;;;;;;5010207;28;19925;-88
2022/12/31 15:40:41;;;;;;;;;;;;;;;;;;5007421;28;19925;-89
2022/12/31 15:43:06;;;;;;;;;;;;;;;;;;4993815;28;19913;-88
2022/12/31 15:45:32;;;;;;;;;;;;;;;;;;5002846;28;19964;-89
2022/12/31 15:47:57;;;;;;;;;;;;;;;;;;4998722;28;20361;-88
2022/12/31 15:50:23;;;;;;;;;;;;;;;;;;4964927;28;19981;-89
2022/12/31 15:52:49;;;;;;;;;;;;;;;;;;4963712;28;19913;-90
2022/12/31 15:55:14;;;;;;;;;;;;;;;;;;4962873;28;19922;-90
2022/12/31 15:57:42;;;;;;;;;;;;;;;;;;4977619;28;20401;-90
2022/12/31 16:00:07;;;;;;;;;;;;;;;;;;4994254;28;19914;-92
2022/12/31 16:02:33;;;;;;;;;;;;;;;;;;5004041;28;19924;-93
2022/12/31 16:04:58;;;;;;;;;;;;;;;;;;5008995;28;19918;-91
2022/12/31 16:07:24;;;;;;;;;;;;;;;;;;5002229;28;19921;-89
2022/12/31 16:09:49;;;;;;;;;;;;;;;;;;5004599;28;19920;-89
2022/12/31 16:12:15;;;;;;;;;;;;;;;;;;5004327;28;20338;-91
2022/12/31 16:14:40;;;;;;;;;;;;;;;;;;5002635;28;19975;-91
2022/12/31 16:17:06;;;;;;;;;;;;;;;;;;5003782;28;19914;-90
2022/12/31 16:19:31;;;;;;;;;;;;;;;;;;4968794;28;19936;-91
2022/12/31 16:21:57;;;;;;;;;;;;;;;;;;4998540;28;20381;-90
2022/12/31 16:24:22;;;;;;;;;;;;;;;;;;4967429;28;19918;-91
2022/12/31 16:26:48;;;;;;;;;;;;;;;;;;4982449;28;19913;-91
2022/12/31 16:29:15;;;;;;;;;;;;;;;;;;4998282;28;19914;-91
2022/12/31 16:31:44;;;;;;;;;;;;;;;;;;4981359;28;19957;-90
2022/12/31 16:34:09;;;;;;;;;;;;;;;;;;4997276;28;20400;-89
2022/12/31 16:36:35;;;;;;;;;;;;;;;;;;4968095;28;20403;-90
2022/12/31 16:39:00;;;;;;;;;;;;;;;;;;4998611;28;19913;-89
2022/12/31 16:41:26;;;;;;;;;;;;;;;;;;4982455;28;20262;-91
2022/12/31 16:43:51;;;;;;;;;;;;;;;;;;5002937;28;19968;-88
2022/12/31 16:46:16;;;;;;;;;;;;;;;;;;4971859;28;20340;-90
2022/12/31 16:48:42;;;;;;;;;;;;;;;;;;4984494;28;19910;-90
2022/12/31 16:51:17;;;;;;;;;;;;;;;;;;4985850;28;19918;-90
2022/12/31 16:53:43;;;;;;;;;;;;;;;;;;4998082;28;19936;-91
2022/12/31 16:56:08;;;;;;;;;;;;;;;;;;4996923;28;20293;-90
2022/12/31 16:58:34;;;;;;;;;;;;;;;;;;4998018;28;19953;-91
2022/12/31 17:00:59;;;;;;;;;;;;;;;;;;4982914;28;20043;-91
2022/12/31 17:03:28;;;;;;;;;;;;;;;;;;5006061;28;19924;-90
2022/12/31 17:05:53;;;;;;;;;;;;;;;;;;4998505;28;20289;-91